Time;durP1;ratioP1;P1;durP2;ratioP2;P2;SDS_P1;SDS_P2;PMS_P1;PMS_P2;Temp;Humidity;BMP_temperature;BMP_pressure;BME280_temperature;BME280_humidity;BME280_pressure;Samples;Min_cycle;Max_cycle;Signal;HPM_P1;HPM_P2
2022/06/19 00:01:02;;;;;;;;;20.25;11.50;;;;;29.92;40.90;100427.09;5069476;28;45373;-65
2022/06/19 00:03:32;;;;;;;;;13.50;12.00;;;;;29.81;41.50;100455.00;5073368;28;45490;-64
2022/06/19 00:05:59;;;;;;;;;16.75;12.50;;;;;29.57;41.50;100445.81;5071674;28;46267;-65
2022/06/19 00:08:26;;;;;;;;;18.50;12.75;;;;;29.34;41.85;100459.97;5071244;28;45573;-65
2022/06/19 00:10:52;;;;;;;;;16.75;13.75;;;;;29.18;41.75;100451.31;5070862;27;45448;-66
2022/06/19 00:13:18;;;;;;;;;12.75;12.00;;;;;28.99;41.76;100460.41;5069460;28;45247;-68
2022/06/19 00:15:43;;;;;;;;;14.50;13.25;;;;;28.77;42.66;100457.19;5071682;28;46072;-67
2022/06/19 00:18:09;;;;;;;;;13.25;12.00;;;;;28.65;42.78;100499.56;5071680;28;45810;-68
2022/06/19 00:20:35;;;;;;;;;13.25;10.00;;;;;28.52;42.57;100489.63;5071950;27;45278;-71
2022/06/19 00:23:00;;;;;;;;;11.25;10.50;;;;;28.38;43.05;100533.22;5071276;28;45341;-71
2022/06/19 00:25:26;;;;;;;;;15.25;11.00;;;;;28.22;43.34;100535.31;5071923;28;45567;-66
2022/06/19 00:27:51;;;;;;;;;12.25;11.50;;;;;28.08;43.25;100507.41;5071075;27;45292;-67
2022/06/19 00:30:17;;;;;;;;;9.50;9.00;;;;;27.95;42.96;100541.78;5070845;28;45425;-67
2022/06/19 00:32:42;;;;;;;;;10.00;8.00;;;;;27.76;43.35;100544.28;5064621;28;45415;-67
2022/06/19 00:35:09;;;;;;;;;11.00;9.00;;;;;27.61;43.17;100534.69;5070884;28;45703;-67
2022/06/19 00:37:35;;;;;;;;;10.25;7.00;;;;;27.44;43.49;100518.84;5074034;28;46545;-67
2022/06/19 00:40:02;;;;;;;;;12.25;8.75;;;;;27.25;43.30;100503.41;5071538;28;45425;-67
2022/06/19 00:42:29;;;;;;;;;12.00;9.75;;;;;27.05;43.44;100513.38;5071553;28;45571;-67
2022/06/19 00:44:55;;;;;;;;;10.00;8.25;;;;;26.81;43.31;100512.00;5071808;28;45453;-67
2022/06/19 00:47:26;;;;;;;;;9.75;7.00;;;;;26.56;43.73;100525.22;5072403;28;45378;-67
2022/06/19 00:50:06;;;;;;;;;9.25;7.75;;;;;26.33;43.83;100503.88;5071673;28;45480;-67
2022/06/19 00:52:38;;;;;;;;;7.00;6.00;;;;;26.16;43.62;100519.56;5067249;28;45471;-67
2022/06/19 00:55:21;;;;;;;;;8.00;5.75;;;;;26.06;44.12;100548.75;5072201;28;45385;-67
2022/06/19 00:58:02;;;;;;;;;13.00;7.50;;;;;25.87;44.16;100548.41;5072421;28;45397;-67
2022/06/19 01:00:30;;;;;;;;;13.00;6.00;;;;;25.73;44.10;100552.03;5062576;28;45237;-68
2022/06/19 01:03:01;;;;;;;;;9.75;8.00;;;;;25.57;44.07;100563.03;5062828;28;45275;-67
2022/06/19 01:05:28;;;;;;;;;10.25;7.50;;;;;25.38;44.48;100552.91;5062319;28;45323;-67
2022/06/19 01:07:56;;;;;;;;;9.50;7.50;;;;;25.19;43.89;100578.59;5062603;28;45295;-67
2022/06/19 01:10:22;;;;;;;;;10.00;8.75;;;;;24.89;44.11;100588.59;5062500;28;45426;-66
2022/06/19 01:12:48;;;;;;;;;13.00;8.25;;;;;24.67;44.02;100587.69;5049758;28;45471;-67
2022/06/19 01:15:18;;;;;;;;;17.50;9.50;;;;;24.48;44.83;100579.13;5062477;28;46261;-67
2022/06/19 01:17:46;;;;;;;;;10.25;9.00;;;;;24.31;44.90;100574.91;5061856;28;45222;-66
2022/06/19 01:20:12;;;;;;;;;15.50;9.25;;;;;24.19;44.69;100563.75;5062569;28;45431;-67
2022/06/19 01:22:48;;;;;;;;;14.25;10.00;;;;;24.17;44.84;100551.50;5062484;28;45333;-66
2022/06/19 01:25:29;;;;;;;;;15.00;9.50;;;;;24.07;44.91;100559.84;5062754;28;46246;-67
2022/06/19 01:30:46;;;;;;;;;12.25;10.25;;;;;23.66;45.57;100548.59;5061905;28;45546;-67
2022/06/19 01:33:17;;;;;;;;;15.25;10.50;;;;;23.38;45.35;100554.50;5062451;28;45224;-67
2022/06/19 01:35:47;;;;;;;;;14.25;9.00;;;;;23.15;45.70;100542.91;5058219;28;45246;-67
2022/06/19 01:38:16;;;;;;;;;14.75;9.00;;;;;23.11;45.88;100569.28;5062204;28;45310;-67
2022/06/19 01:40:46;;;;;;;;;15.00;10.25;;;;;23.19;46.01;100581.00;5061604;28;45334;-66
2022/06/19 01:43:12;;;;;;;;;14.25;10.50;;;;;23.20;45.94;100571.91;5062099;28;45281;-67
2022/06/19 01:45:43;;;;;;;;;13.50;10.50;;;;;23.10;46.16;100581.03;5061667;28;45437;-67
2022/06/19 01:48:09;;;;;;;;;16.00;11.00;;;;;23.15;46.04;100577.00;5061939;28;45492;-66
2022/06/19 01:50:34;;;;;;;;;8.25;7.00;;;;;23.06;46.21;100563.59;5062075;28;45405;-66
2022/06/19 01:53:08;;;;;;;;;12.75;9.00;;;;;23.01;46.40;100557.09;5062140;28;45571;-67
2022/06/19 01:55:34;;;;;;;;;10.50;8.00;;;;;22.91;46.69;100540.31;5061903;28;45330;-66
2022/06/19 01:58:01;;;;;;;;;13.00;11.00;;;;;22.92;46.49;100518.69;5061572;28;45343;-67
2022/06/19 02:00:31;;;;;;;;;14.50;10.25;;;;;22.96;46.21;100514.63;5061957;28;45323;-67
2022/06/19 02:03:19;;;;;;;;;12.50;10.00;;;;;22.94;46.40;100503.22;5061626;28;45433;-67
2022/06/19 02:05:45;;;;;;;;;10.50;9.25;;;;;22.86;46.72;100511.31;5041095;28;45430;-67
2022/06/19 02:08:14;;;;;;;;;14.00;11.25;;;;;22.74;46.52;100528.78;5061505;28;45294;-67
2022/06/19 02:10:41;;;;;;;;;15.75;11.25;;;;;22.62;46.53;100565.13;5061473;28;45386;-67
2022/06/19 02:13:09;;;;;;;;;12.00;9.00;;;;;22.55;46.76;100594.50;5059990;28;45473;-67
2022/06/19 02:15:36;;;;;;;;;10.00;8.75;;;;;22.56;46.87;100598.84;5061479;28;45378;-67
2022/06/19 02:18:05;;;;;;;;;13.50;8.00;;;;;22.54;46.96;100614.28;5061299;28;45323;-66
2022/06/19 02:20:30;;;;;;;;;16.50;7.75;;;;;22.45;47.24;100618.00;5061496;28;45421;-66
2022/06/19 02:22:57;;;;;;;;;11.00;8.25;;;;;22.43;47.15;100598.53;5060371;28;45232;-67
2022/06/19 02:25:23;;;;;;;;;10.00;9.00;;;;;22.41;47.16;100613.97;5059772;28;46257;-67
2022/06/19 02:27:49;;;;;;;;;11.75;9.00;;;;;22.38;47.11;100607.13;5061117;28;45350;-66
2022/06/19 02:30:14;;;;;;;;;9.00;8.75;;;;;22.43;47.26;100626.22;5061493;28;45342;-68
2022/06/19 02:32:46;;;;;;;;;10.00;7.50;;;;;22.41;47.46;100627.41;5061045;28;45334;-66
2022/06/19 02:35:18;;;;;;;;;13.50;7.25;;;;;22.43;47.24;100604.75;5059959;28;45450;-67
2022/06/19 02:37:47;;;;;;;;;10.75;7.50;;;;;22.42;47.62;100605.75;5060644;28;45312;-66
2022/06/19 02:40:38;;;;;;;;;8.75;7.75;;;;;22.39;47.43;100624.91;5061028;28;45544;-67
2022/06/19 02:43:22;;;;;;;;;9.50;7.50;;;;;22.31;47.40;100643.69;5061179;28;45442;-66
2022/06/19 02:45:48;;;;;;;;;9.75;7.00;;;;;22.24;47.71;100656.09;5060355;28;46669;-67
2022/06/19 02:48:24;;;;;;;;;12.25;8.00;;;;;22.20;47.61;100658.31;5060987;28;45228;-67
2022/06/19 02:50:50;;;;;;;;;8.50;5.00;;;;;22.23;47.77;100668.69;5049914;28;45355;-66
2022/06/19 02:53:17;;;;;;;;;11.00;9.75;;;;;22.25;47.85;100782.06;5061011;28;45439;-66
2022/06/19 02:55:43;;;;;;;;;15.75;10.00;;;;;22.25;47.78;100912.72;5061158;28;45394;-66
2022/06/19 02:58:09;;;;;;;;;8.00;6.00;;;;;22.25;47.94;100813.41;5060738;28;45345;-66
2022/06/19 03:00:35;;;;;;;;;11.00;7.25;;;;;22.26;47.92;100774.84;5060862;28;45468;-66
2022/06/19 03:03:08;;;;;;;;;9.75;7.25;;;;;22.26;48.04;100833.88;5060694;28;45509;-67
2022/06/19 03:05:34;;;;;;;;;6.00;6.00;;;;;22.23;48.29;100861.06;5061151;28;45342;-66
2022/06/19 03:08:00;;;;;;;;;8.00;6.25;;;;;22.23;48.34;100828.84;5060676;28;45465;-66
2022/06/19 03:10:27;;;;;;;;;12.00;7.00;;;;;22.25;48.27;100833.03;5047746;28;45260;-66
2022/06/19 03:12:52;;;;;;;;;11.25;5.75;;;;;22.22;48.13;100777.03;5045723;28;45249;-66
2022/06/19 03:15:18;;;;;;;;;24.75;16.25;;;;;22.24;48.36;100803.69;5060756;28;45307;-66
2022/06/19 03:17:44;;;;;;;;;9.50;8.25;;;;;22.19;48.22;100766.59;5060373;28;45223;-66
2022/06/19 03:20:14;;;;;;;;;15.75;7.50;;;;;22.23;48.42;100759.09;5060947;28;45382;-67
2022/06/19 03:22:39;;;;;;;;;14.25;9.75;;;;;22.20;48.38;100810.41;5060774;28;45268;-67
2022/06/19 03:25:05;;;;;;;;;13.50;10.25;;;;;22.20;48.45;100754.06;5060690;28;46106;-66
2022/06/19 03:27:31;;;;;;;;;9.75;8.25;;;;;22.16;48.36;100809.03;5060406;28;45384;-66
2022/06/19 03:29:56;;;;;;;;;6.25;6.00;;;;;22.12;48.46;100821.97;5060947;28;45349;-66
2022/06/19 03:32:22;;;;;;;;;15.00;11.25;;;;;22.10;48.51;100777.50;5060456;28;45346;-67
2022/06/19 03:34:47;;;;;;;;;25.25;21.50;;;;;22.06;48.63;100771.59;5064704;28;45360;-66
2022/06/19 03:37:13;;;;;;;;;15.00;9.00;;;;;22.06;48.58;100786.88;5063930;28;45426;-66
2022/06/19 03:39:39;;;;;;;;;15.50;11.00;;;;;22.08;48.41;100792.94;5064064;28;45160;-67
2022/06/19 03:42:05;;;;;;;;;13.00;10.00;;;;;22.05;48.32;100787.88;5063916;28;45319;-66
2022/06/19 03:44:31;;;;;;;;;15.00;9.25;;;;;22.00;48.28;100775.78;5064082;28;45875;-66
2022/06/19 03:46:56;;;;;;;;;10.75;9.75;;;;;21.99;48.55;100779.47;5063641;28;45308;-67
2022/06/19 03:49:22;;;;;;;;;14.00;11.00;;;;;21.98;48.25;100791.19;5063011;28;45336;-66
2022/06/19 03:51:47;;;;;;;;;11.00;10.75;;;;;21.96;48.36;100786.97;5063952;28;45327;-66
2022/06/19 03:54:12;;;;;;;;;12.75;10.25;;;;;21.93;48.58;100787.31;5063966;28;45462;-67
2022/06/19 03:56:38;;;;;;;;;16.50;13.25;;;;;21.89;48.77;100789.50;5063556;28;45315;-66
2022/06/19 03:59:10;;;;;;;;;10.00;9.50;;;;;21.91;48.75;100759.84;5064058;28;45395;-66
2022/06/19 04:01:39;;;;;;;;;14.00;13.00;;;;;21.90;48.62;100744.75;5063572;28;45396;-66
2022/06/19 04:04:05;;;;;;;;;11.75;8.00;;;;;21.81;48.54;100710.88;5063601;28;45476;-66
2022/06/19 04:06:35;;;;;;;;;12.75;9.75;;;;;21.78;48.72;100736.16;5063631;28;45338;-66
2022/06/19 04:09:02;;;;;;;;;16.25;12.75;;;;;21.78;48.78;100740.69;5056037;28;45398;-66
2022/06/19 04:11:29;;;;;;;;;15.75;12.50;;;;;21.72;48.72;100783.25;5054480;28;45408;-66
2022/06/19 04:13:55;;;;;;;;;10.75;9.00;;;;;21.77;48.78;100862.34;5054825;28;45422;-66
2022/06/19 04:16:30;;;;;;;;;15.50;12.25;;;;;21.83;48.79;100908.16;5062949;28;45450;-66
2022/06/19 04:18:57;;;;;;;;;16.00;12.25;;;;;21.87;48.77;100861.22;5063514;28;45340;-66
2022/06/19 04:21:28;;;;;;;;;12.50;11.25;;;;;21.89;48.68;100748.44;5063427;28;45325;-66
2022/06/19 04:23:57;;;;;;;;;11.50;10.00;;;;;21.84;48.75;100675.69;5063508;28;45380;-67
2022/06/19 04:26:24;;;;;;;;;9.00;8.25;;;;;21.70;48.61;100629.72;5063114;28;45256;-66
2022/06/19 04:28:50;;;;;;;;;12.75;11.00;;;;;21.60;48.85;100679.97;5060364;28;46277;-66
2022/06/19 04:31:16;;;;;;;;;13.75;12.00;;;;;21.51;49.27;100707.78;5063092;28;45637;-66
2022/06/19 04:33:42;;;;;;;;;12.75;10.50;;;;;21.48;49.19;100710.75;5063092;28;45312;-66
2022/06/19 04:36:11;;;;;;;;;9.00;9.00;;;;;21.53;49.36;100696.88;5062724;28;45477;-66
2022/06/19 04:38:40;;;;;;;;;11.25;10.25;;;;;21.52;49.42;100685.31;5063399;28;45299;-66
2022/06/19 04:41:14;;;;;;;;;9.00;9.00;;;;;21.47;49.26;100714.44;5062571;28;45313;-66
2022/06/19 04:43:39;;;;;;;;;10.00;7.25;;;;;21.45;49.51;100748.63;5062624;28;45576;-68
2022/06/19 04:46:06;;;;;;;;;8.50;6.75;;;;;21.39;49.69;100739.38;5060899;28;45325;-66
2022/06/19 04:48:33;;;;;;;;;8.00;7.00;;;;;21.30;49.69;100737.66;5062568;28;45422;-66
2022/06/19 04:50:59;;;;;;;;;10.25;8.25;;;;;21.31;50.13;100762.59;5062331;28;45377;-67
2022/06/19 04:53:25;;;;;;;;;3.75;2.25;;;;;21.30;49.93;100678.72;5062257;28;45500;-66
2022/06/19 04:55:50;;;;;;;;;7.75;6.00;;;;;21.23;49.96;100660.72;5062647;28;45295;-67
2022/06/19 04:58:16;;;;;;;;;8.00;6.00;;;;;21.19;50.16;100677.13;5062377;28;45634;-66
2022/06/19 05:00:41;;;;;;;;;9.00;5.25;;;;;21.24;50.11;100682.00;5057136;28;46027;-66
2022/06/19 05:03:07;;;;;;;;;5.00;4.00;;;;;21.23;50.14;100700.91;5062424;28;45956;-66
2022/06/19 05:05:32;;;;;;;;;6.00;5.00;;;;;21.22;50.31;100709.97;5062581;28;45314;-67
2022/06/19 05:07:58;;;;;;;;;10.75;5.50;;;;;21.24;50.50;100697.22;5062841;28;45348;-66
2022/06/19 05:10:23;;;;;;;;;7.00;6.25;;;;;21.22;50.50;100699.25;5062365;28;45168;-67
2022/06/19 05:12:55;;;;;;;;;6.00;4.50;;;;;21.13;50.32;100730.50;5061125;28;45401;-66
2022/06/19 05:15:21;;;;;;;;;7.00;4.00;;;;;21.06;50.37;100724.09;5062460;28;45381;-66
2022/06/19 05:17:46;;;;;;;;;8.00;5.00;;;;;21.01;50.25;100727.25;5062462;28;45822;-66
2022/06/19 05:20:12;;;;;;;;;9.50;5.25;;;;;20.96;50.74;100751.00;5062164;28;45374;-66
2022/06/19 05:22:37;;;;;;;;;4.75;4.50;;;;;20.96;50.67;100753.69;5061591;28;45306;-66
2022/06/19 05:25:08;;;;;;;;;5.50;4.00;;;;;20.98;50.74;100699.97;5062216;28;45341;-66
2022/06/19 05:27:35;;;;;;;;;4.75;3.00;;;;;20.94;50.52;100653.09;5061685;28;45534;-66
2022/06/19 05:30:00;;;;;;;;;7.25;4.50;;;;;20.88;50.69;100639.34;5062513;28;45519;-67
2022/06/19 05:32:26;;;;;;;;;13.75;5.00;;;;;20.88;50.54;100638.50;5061884;28;45998;-68
2022/06/19 05:34:52;;;;;;;;;8.75;3.25;;;;;20.86;50.76;100614.56;5060467;28;45457;-67
2022/06/19 05:37:17;;;;;;;;;7.25;4.75;;;;;20.81;50.81;100566.00;5062379;28;45314;-67
2022/06/19 05:39:43;;;;;;;;;4.50;4.00;;;;;20.66;51.21;100548.03;5062397;28;45525;-67
2022/06/19 05:42:08;;;;;;;;;8.75;5.00;;;;;20.51;50.90;100540.59;5062069;28;45978;-67
2022/06/19 05:44:36;;;;;;;;;6.75;5.00;;;;;20.40;51.44;100583.66;5062303;28;45228;-67
2022/06/19 05:47:01;;;;;;;;;5.75;4.25;;;;;20.37;51.39;100645.50;5062028;28;45390;-68
2022/06/19 05:49:27;;;;;;;;;6.00;4.50;;;;;20.42;51.54;100687.84;5062279;28;45542;-67
2022/06/19 05:51:52;;;;;;;;;5.50;3.50;;;;;20.51;51.54;100700.31;5061996;28;45856;-67
2022/06/19 05:54:18;;;;;;;;;6.50;3.25;;;;;20.50;51.49;100688.78;5062118;28;45327;-67
2022/06/19 05:56:43;;;;;;;;;7.00;4.75;;;;;20.49;51.59;100646.97;5062157;28;45284;-68
2022/06/19 05:59:09;;;;;;;;;6.25;4.25;;;;;20.51;51.85;100596.81;5060704;28;45513;-67
2022/06/19 06:01:35;;;;;;;;;7.00;3.25;;;;;20.50;51.98;100596.97;5061112;28;45471;-67
2022/06/19 06:04:00;;;;;;;;;5.50;4.00;;;;;20.49;52.06;100580.06;5061656;28;45299;-67
2022/06/19 06:06:29;;;;;;;;;3.75;2.75;;;;;20.50;52.08;100576.41;5061980;28;45321;-67
2022/06/19 06:08:55;;;;;;;;;4.25;2.00;;;;;20.44;51.50;100560.97;5061812;28;45295;-67
2022/06/19 06:11:21;;;;;;;;;5.50;2.00;;;;;20.40;51.91;100545.38;5059923;28;45512;-67
2022/06/19 06:13:47;;;;;;;;;3.50;2.00;;;;;20.34;51.68;100520.94;5094219;27;45742;-67
2022/06/19 06:16:14;;;;;;;;;7.25;3.25;;;;;20.26;52.16;100491.47;5061524;28;45444;-67
2022/06/19 06:18:41;;;;;;;;;3.75;3.00;;;;;20.18;51.65;100503.94;5061987;28;45374;-67
2022/06/19 06:21:11;;;;;;;;;4.75;3.00;;;;;20.15;52.22;100525.69;5061588;28;45446;-67
2022/06/19 06:23:37;;;;;;;;;4.75;3.00;;;;;20.13;52.03;100579.28;5061419;28;45220;-67
2022/06/19 06:26:09;;;;;;;;;6.00;3.50;;;;;20.17;52.44;100580.69;5062897;28;45326;-68
2022/06/19 06:28:37;;;;;;;;;3.50;1.75;;;;;20.24;52.27;100674.50;5060281;28;45352;-67
2022/06/19 06:31:02;;;;;;;;;5.50;2.75;;;;;20.22;52.42;100719.28;5058457;28;46423;-67
2022/06/19 06:33:29;;;;;;;;;7.00;3.00;;;;;20.23;52.16;100678.19;5060279;28;45320;-67
2022/06/19 06:35:55;;;;;;;;;4.00;2.25;;;;;20.23;52.47;100748.56;5060350;28;45515;-67
2022/06/19 06:38:22;;;;;;;;;3.75;2.25;;;;;20.23;52.24;100711.13;5061578;28;45389;-67
2022/06/19 06:40:48;;;;;;;;;1.75;1.75;;;;;20.13;52.18;100614.06;5061005;28;46279;-67
2022/06/19 06:43:14;;;;;;;;;6.50;2.75;;;;;20.08;52.00;100758.13;5061413;28;45367;-67
2022/06/19 06:45:39;;;;;;;;;8.75;2.25;;;;;20.11;52.61;100786.38;5059875;28;45387;-67
2022/06/19 06:48:05;;;;;;;;;5.25;1.25;;;;;20.12;52.76;100684.59;5061685;28;45479;-67
2022/06/19 06:50:31;;;;;;;;;3.00;1.50;;;;;20.07;52.31;100682.41;5059965;28;45324;-67
2022/06/19 06:52:56;;;;;;;;;4.25;2.25;;;;;20.08;52.25;100656.50;5061249;28;45335;-67
2022/06/19 06:55:22;;;;;;;;;3.50;2.25;;;;;20.17;52.84;100658.25;5056075;28;45173;-65
2022/06/19 06:57:47;;;;;;;;;3.75;3.00;;;;;20.46;52.94;100608.97;5057408;28;45371;-65
2022/06/19 07:00:22;;;;;;;;;2.75;2.75;;;;;20.58;52.85;100568.41;5059132;28;45451;-65
2022/06/19 07:02:48;;;;;;;;;5.25;3.00;;;;;20.57;53.46;100574.75;5059372;28;45504;-65
2022/06/19 07:05:15;;;;;;;;;2.75;2.75;;;;;20.60;53.10;100560.22;5060266;28;45354;-64
2022/06/19 07:07:40;;;;;;;;;4.00;4.00;;;;;20.54;53.37;100542.13;5059645;28;45660;-64
2022/06/19 07:10:07;;;;;;;;;2.25;1.75;;;;;20.48;52.87;100535.59;5058225;28;46460;-64
2022/06/19 07:12:33;;;;;;;;;3.50;2.25;;;;;20.38;53.14;100587.47;5058048;28;45829;-64
2022/06/19 07:14:58;;;;;;;;;2.75;1.75;;;;;20.35;53.43;100658.22;5059341;28;45622;-64
2022/06/19 07:17:24;;;;;;;;;5.25;4.00;;;;;20.45;52.92;100698.25;5063916;28;45412;-64
2022/06/19 07:19:49;;;;;;;;;3.00;2.50;;;;;20.52;53.13;100716.22;5068632;27;45308;-51
2022/06/19 07:22:17;;;;;;;;;1.75;1.75;;;;;20.55;53.32;100712.41;5067087;27;45258;-51
2022/06/19 07:24:44;;;;;;;;;2.50;2.50;;;;;20.66;53.51;100733.56;5068676;28;45338;-51
2022/06/19 07:27:10;;;;;;;;;3.25;1.50;;;;;20.97;53.89;100707.16;5071736;28;45529;-51
2022/06/19 07:29:44;;;;;;;;;5.75;2.75;;;;;21.27;54.03;100679.03;5069431;28;45507;-52
2022/06/19 07:32:12;;;;;;;;;4.25;2.00;;;;;21.38;53.62;100673.38;5067894;28;45465;-54
2022/06/19 07:34:39;;;;;;;;;2.75;2.75;;;;;21.38;53.59;100783.25;5074163;28;45718;-53
2022/06/19 07:37:06;;;;;;;;;3.75;3.50;;;;;21.35;53.58;100868.50;5069127;28;45613;-53
2022/06/19 07:39:32;;;;;;;;;2.75;1.50;;;;;21.26;53.36;100875.59;5070376;28;45317;-54
2022/06/19 07:41:59;;;;;;;;;3.75;2.50;;;;;21.30;53.32;100855.56;5069427;28;45299;-52
2022/06/19 07:44:24;;;;;;;;;4.00;1.50;;;;;21.40;53.27;100842.03;5071365;28;45393;-55
2022/06/19 07:52:17;;;;;;;;;5.75;3.75;;;;;21.69;53.24;100831.81;5068878;28;45353;-53
2022/06/19 07:54:43;;;;;;;;;3.75;3.00;;;;;21.61;52.84;100831.78;5068460;28;45566;-50
2022/06/19 07:57:08;;;;;;;;;2.75;2.75;;;;;21.40;52.81;100805.34;5071221;28;45389;-54
2022/06/19 07:59:34;;;;;;;;;5.25;3.75;;;;;21.37;52.64;100803.00;5064745;28;45446;-50
2022/06/19 08:01:59;;;;;;;;;4.25;1.75;;;;;21.34;52.83;100837.34;5061610;28;45453;-50
2022/06/19 08:04:25;;;;;;;;;4.50;3.75;;;;;21.37;52.77;100934.31;5061974;28;45320;-53
2022/06/19 08:06:50;;;;;;;;;16.25;11.00;;;;;21.40;52.78;101017.09;5060500;28;45489;-54
2022/06/19 08:09:16;;;;;;;;;8.50;6.50;;;;;21.45;52.85;100992.50;5065865;28;45897;-52
2022/06/19 08:11:42;;;;;;;;;4.25;1.75;;;;;21.41;52.47;100892.81;5060208;28;45319;-52
2022/06/19 08:14:07;;;;;;;;;9.50;3.75;;;;;21.49;52.50;100826.84;5069831;28;45501;-49
2022/06/19 08:16:34;;;;;;;;;4.75;4.75;;;;;21.43;52.72;100831.88;5069392;28;45534;-52
2022/06/19 08:18:59;;;;;;;;;4.50;4.50;;;;;21.44;52.36;100832.69;5067063;28;45685;-54
2022/06/19 08:21:24;;;;;;;;;3.50;3.25;;;;;21.49;52.68;100774.09;5069679;28;45165;-52
2022/06/19 08:23:50;;;;;;;;;4.25;4.25;;;;;21.53;52.40;100745.13;5070243;28;45978;-53
2022/06/19 08:26:15;;;;;;;;;6.00;5.00;;;;;21.63;52.34;100752.03;5062905;28;45664;-49
2022/06/19 08:31:25;;;;;;;;;5.00;4.00;;;;;21.73;52.61;100762.63;5064535;28;45640;-54
2022/06/19 08:33:50;;;;;;;;;5.75;4.50;;;;;21.74;52.16;100778.56;5064247;28;46655;-50
2022/06/19 08:36:16;;;;;;;;;4.00;4.00;;;;;21.64;52.37;100759.06;5063119;28;45487;-47
2022/06/19 08:38:49;;;;;;;;;6.50;5.00;;;;;21.63;52.53;100729.75;5064967;28;45480;-56
2022/06/19 08:41:30;;;;;;;;;3.75;3.75;;;;;21.72;52.41;100712.66;5073735;28;45224;-56
2022/06/19 08:44:18;;;;;;;;;8.50;6.75;;;;;21.78;52.27;100712.03;5069736;28;45368;-50
2022/06/19 08:47:08;;;;;;;;;7.00;5.50;;;;;21.57;52.37;100709.81;5066011;28;45221;-58
2022/06/19 08:49:43;;;;;;;;;7.25;5.25;;;;;21.23;52.13;100693.72;5060487;28;46293;-61
2022/06/19 08:52:20;;;;;;;;;5.75;4.25;;;;;21.02;51.90;100687.94;5064696;28;45387;-60
2022/06/19 08:55:14;;;;;;;;;6.50;4.75;;;;;20.79;52.17;100690.31;5101473;27;45512;-55
2022/06/19 08:58:13;;;;;;;;;11.00;7.25;;;;;20.71;52.38;100668.84;5072880;28;46406;-58
2022/06/19 09:00:57;;;;;;;;;6.25;6.25;;;;;20.66;52.78;100677.34;5071369;28;45371;-58
2022/06/19 09:03:22;;;;;;;;;9.50;6.00;;;;;20.67;52.53;100702.28;5071806;28;45521;-58
2022/06/19 09:05:53;;;;;;;;;6.50;5.50;;;;;20.77;52.83;100714.56;5072732;28;45154;-56
2022/06/19 09:08:19;;;;;;;;;9.00;7.00;;;;;20.79;52.79;100703.72;5072310;28;45613;-59
2022/06/19 09:10:49;;;;;;;;;7.50;7.50;;;;;20.81;52.90;100718.59;5070804;27;45486;-59
2022/06/19 09:13:32;;;;;;;;;10.75;7.50;;;;;20.85;52.83;100728.03;5061255;28;45354;-59
2022/06/19 09:16:02;;;;;;;;;9.25;7.50;;;;;20.88;53.46;100745.59;5060474;28;45389;-59
2022/06/19 09:19:02;;;;;;;;;9.00;6.75;;;;;20.90;53.42;100749.78;5062295;28;45893;-60
2022/06/19 09:21:44;;;;;;;;;11.00;9.00;;;;;20.90;53.25;100776.56;5060795;28;45374;-60
2022/06/19 09:24:18;;;;;;;;;8.50;7.50;;;;;20.95;53.42;100802.91;5060408;28;45480;-60
2022/06/19 09:26:50;;;;;;;;;10.75;9.00;;;;;21.03;53.27;100812.81;5061837;28;45387;-63
2022/06/19 09:29:27;;;;;;;;;9.25;8.75;;;;;21.07;53.35;100824.88;5061587;28;45363;-61
2022/06/19 09:32:17;;;;;;;;;13.75;11.50;;;;;21.15;53.29;100827.63;5060523;28;46202;-61
2022/06/19 09:34:51;;;;;;;;;16.25;10.50;;;;;21.16;52.98;100818.59;5053990;28;45347;-61
2022/06/19 09:37:39;;;;;;;;;11.00;9.75;;;;;21.13;53.45;100810.88;5065264;27;45328;-61
2022/06/19 09:40:20;;;;;;;;;12.75;10.50;;;;;21.25;53.30;100824.84;5060415;28;45190;-62
2022/06/19 09:43:23;;;;;;;;;14.00;12.00;;;;;21.39;53.62;100840.38;5050514;28;45400;-61
2022/06/19 09:45:57;;;;;;;;;13.00;10.50;;;;;21.42;53.44;100840.91;5061847;28;45319;-62
2022/06/19 09:48:25;;;;;;;;;12.25;9.00;;;;;21.50;53.24;100848.16;5062286;28;45486;-63
2022/06/19 09:51:03;;;;;;;;;11.50;10.75;;;;;21.59;53.57;100851.72;5062394;28;45381;-62
2022/06/19 09:54:03;;;;;;;;;10.50;9.75;;;;;21.73;53.53;100849.28;5062019;28;45282;-61
2022/06/19 09:56:45;;;;;;;;;11.75;10.25;;;;;21.84;53.23;100855.34;5058643;28;45259;-62
2022/06/19 09:59:21;;;;;;;;;16.50;11.25;;;;;21.94;53.35;100864.94;5062078;28;45299;-61
2022/06/19 10:01:56;;;;;;;;;13.25;10.25;;;;;22.14;53.20;100848.63;5061827;28;45352;-61
2022/06/19 10:04:34;;;;;;;;;13.25;11.00;;;;;22.27;53.27;100848.97;5061783;28;45549;-61
2022/06/19 10:07:06;;;;;;;;;13.75;9.75;;;;;22.39;53.15;100845.00;5062024;28;45473;-61
2022/06/19 10:09:39;;;;;;;;;12.75;11.00;;;;;22.48;52.92;100835.94;5062018;28;45259;-61
2022/06/19 10:12:10;;;;;;;;;14.00;10.75;;;;;22.62;52.96;100826.41;5068818;28;45231;-61
2022/06/19 10:14:38;;;;;;;;;14.50;14.25;;;;;22.70;53.10;100828.25;5061965;28;45301;-61
2022/06/19 10:17:25;;;;;;;;;11.75;10.00;;;;;22.71;52.73;100829.91;5061540;28;45406;-61
2022/06/19 10:19:57;;;;;;;;;16.50;13.25;;;;;22.80;52.88;100818.16;5061612;28;45253;-61
2022/06/19 10:22:37;;;;;;;;;17.00;11.00;;;;;22.83;52.70;100818.69;5061741;28;45323;-62
2022/06/19 10:25:18;;;;;;;;;14.00;10.25;;;;;22.92;52.95;100826.78;5061600;28;45324;-61
2022/06/19 10:28:07;;;;;;;;;17.25;15.25;;;;;22.97;52.47;100816.34;5061721;28;45253;-63
2022/06/19 10:31:20;;;;;;;;;17.25;13.50;;;;;22.97;52.76;100802.91;5061293;28;45456;-63
2022/06/19 10:34:14;;;;;;;;;20.75;16.00;;;;;22.97;52.56;100795.69;5059405;28;45287;-64
2022/06/19 10:37:21;;;;;;;;;19.00;14.00;;;;;23.00;52.41;100790.00;5061071;28;45308;-63
2022/06/19 10:40:02;;;;;;;;;19.75;17.00;;;;;23.05;52.31;100786.78;5053439;28;45535;-63
2022/06/19 10:42:44;;;;;;;;;22.50;15.00;;;;;23.05;52.07;100784.91;5061608;28;45522;-63
2022/06/19 10:45:09;;;;;;;;;16.50;15.50;;;;;23.07;52.25;100790.16;5058699;28;45376;-63
2022/06/19 10:47:47;;;;;;;;;16.25;14.00;;;;;23.06;52.16;100794.66;5061530;28;45567;-63
2022/06/19 10:50:12;;;;;;;;;21.25;13.50;;;;;23.12;52.13;100807.41;5048752;28;45548;-63
2022/06/19 10:53:05;;;;;;;;;15.50;13.00;;;;;23.12;52.08;100810.09;5061354;28;45653;-63
2022/06/19 10:55:59;;;;;;;;;12.50;12.50;;;;;23.15;51.70;100808.09;5061495;28;45327;-64
2022/06/19 10:58:26;;;;;;;;;19.50;16.50;;;;;23.18;51.76;100811.28;5057114;28;45385;-63
2022/06/19 11:00:56;;;;;;;;;16.00;15.25;;;;;23.24;51.66;100812.44;5060638;28;45307;-63
2022/06/19 11:07:09;;;;;;;;;22.25;17.00;;;;;23.22;52.01;100806.38;5061334;28;45382;-64
2022/06/19 11:09:39;;;;;;;;;20.00;18.00;;;;;23.21;51.63;100793.97;5060912;28;45271;-64
2022/06/19 11:12:15;;;;;;;;;15.50;14.50;;;;;23.25;52.05;100798.84;5067820;28;45190;-64
2022/06/19 11:14:49;;;;;;;;;13.50;12.00;;;;;23.31;51.94;100802.69;5061096;28;45191;-65
2022/06/19 11:17:28;;;;;;;;;20.00;18.00;;;;;23.34;52.25;100810.41;5060756;28;46340;-64
2022/06/19 11:19:53;;;;;;;;;16.00;14.00;;;;;23.35;52.29;100814.75;5060842;28;45412;-64
2022/06/19 11:22:38;;;;;;;;;15.75;14.00;;;;;23.45;52.02;100825.31;5060755;28;45418;-64
2022/06/19 11:25:19;;;;;;;;;13.50;11.25;;;;;23.46;52.00;100824.31;5060795;28;45382;-64
2022/06/19 11:28:09;;;;;;;;;13.00;12.00;;;;;23.46;51.91;100825.16;5061007;28;45216;-64
2022/06/19 11:30:47;;;;;;;;;19.00;15.25;;;;;23.45;51.88;100820.78;5060229;28;45549;-63
2022/06/19 11:33:35;;;;;;;;;17.75;15.50;;;;;23.45;51.89;100798.44;5060773;28;45322;-64
2022/06/19 11:36:08;;;;;;;;;19.00;19.00;;;;;23.48;51.82;100792.72;5060580;28;45173;-64
2022/06/19 11:38:43;;;;;;;;;16.25;13.75;;;;;23.43;51.58;100789.72;5060630;28;45498;-63
2022/06/19 11:41:28;;;;;;;;;20.00;15.25;;;;;23.25;51.76;100814.97;5060758;28;45351;-64
2022/06/19 11:44:02;;;;;;;;;16.75;13.00;;;;;23.19;51.41;100801.38;5060975;28;45477;-63
2022/06/19 11:46:28;;;;;;;;;10.00;10.00;;;;;23.21;51.60;100780.53;5060353;28;45255;-64
2022/06/19 11:48:54;;;;;;;;;16.25;11.75;;;;;23.21;51.65;100791.28;5060655;28;45230;-63